| time (UTC) | temp F | wind direction | speed MPH | gust MPH | rain 1hr in | rain 24hr in | rain mn in | humidity % | barometer mb |
| 20260504181518 | 68 | 200 | 3.0 | 8.0 | 0.00 | 0.00 | 0.00 | 34 | 1005.5 |
| 20260504180019 | 67 | 155 | 1.0 | 15.0 | 0.00 | 0.00 | 0.00 | 34 | 1005.5 |
| 20260504174514 | 65 | 212 | 5.0 | 14.0 | 0.00 | 0.00 | 0.00 | 34 | 1005.6 |
| 20260504173018 | 66 | 57 | 4.0 | 11.0 | 0.00 | 0.00 | 0.00 | 34 | 1005.7 |
| 20260504171512 | 66 | 59 | 4.0 | 15.0 | 0.00 | 0.00 | 0.00 | 34 | 1005.7 |
| 20260504081538 | 39 | 140 | 0.0 | 1.0 | 0.00 | 0.00 | 0.00 | 39 | 1008.7 |
| 20260504050016 | 32 | 144 | 0.0 | 2.0 | 0.00 | 0.00 | 0.00 | 39 | 1008.7 |
| 20260504044514 | 31 | 144 | 0.0 | 1.0 | 0.00 | 0.00 | 0.00 | 39 | 1008.8 |
| 20260504043013 | 31 | 177 | 0.0 | 0.0 | 0.00 | 0.00 | 0.00 | 39 | 1008.8 |
| 20260504041511 | 31 | 177 | 0.0 | 1.0 | 0.00 | 0.00 | 0.00 | 39 | 1008.8 |
| 20260504040010 | 31 | 177 | 0.0 | 0.0 | 0.00 | 0.00 | 0.00 | 39 | 1008.8 |
| 20260504034508 | 31 | 177 | 0.0 | 1.0 | 0.00 | 0.00 | 0.00 | 39 | 1008.7 |
| 20260504033006 | 32 | 233 | 0.0 | 0.0 | 0.00 | 0.00 | 0.00 | 39 | 1008.7 |
| 20260504031505 | 33 | 234 | 0.0 | 0.0 | 0.00 | 0.00 | 0.00 | 39 | 1008.6 |
| 20260504030003 | 33 | 234 | 0.0 | 1.0 | 0.00 | 0.00 | 0.00 | 38 | 1008.5 |
| 20260504024502 | 34 | 233 | 0.0 | 0.0 | 0.00 | 0.00 | 0.00 | 38 | 1008.6 |
| 20260504023101 | 34 | 234 | 0.0 | 0.0 | 0.00 | 0.00 | 0.00 | 38 | 1008.7 |
| 20260504021610 | 35 | 234 | 0.0 | 0.0 | 0.00 | 0.00 | 0.00 | 38 | 1008.6 |
| 20260504020105 | 35 | 233 | 0.0 | 0.0 | 0.00 | 0.00 | 0.00 | 38 | 1008.6 |
| 20260504014554 | 36 | 233 | 0.0 | 0.0 | 0.00 | 0.00 | 0.00 | 38 | 1008.5 |
| 20260504013056 | 37 | 234 | 0.0 | 1.0 | 0.00 | 0.00 | 0.00 | 38 | 1008.3 |
| 20260504011554 | 39 | 234 | 0.0 | 0.0 | 0.00 | 0.00 | 0.00 | 37 | 1008.2 |
| 20260504010052 | 40 | 234 | 0.0 | 1.0 | 0.00 | 0.00 | 0.00 | 37 | 1008.1 |
| 20260504004548 | 41 | 233 | 0.0 | 0.0 | 0.00 | 0.00 | 0.00 | 37 | 1008.0 |
| 20260504003049 | 43 | 234 | 0.0 | 0.0 | 0.00 | 0.00 | 0.00 | 36 | 1007.8 |
| 20260504001650 | 44 | 234 | 0.0 | 0.0 | 0.00 | 0.00 | 0.00 | 36 | 1007.7 |
| 20260504000046 | 46 | 234 | 0.0 | 1.0 | 0.00 | 0.00 | 0.00 | 35 | 1007.5 |
| 20260503234546 | 46 | 233 | 0.0 | 2.0 | 0.00 | 0.00 | 0.00 | 35 | 1007.3 |
| 20260503233045 | 47 | 269 | 2.0 | 8.0 | 0.00 | 0.00 | 0.00 | 35 | 1007.1 |
| 20260503231550 | 47 | 260 | 2.0 | 13.0 | 0.00 | 0.00 | 0.00 | 35 | 1007.1 |
| 20260503230044 | 48 | 229 | 2.0 | 9.0 | 0.00 | 0.00 | 0.00 | 35 | 1007.0 |
| 20260503224548 | 48 | 218 | 3.0 | 7.0 | 0.00 | 0.00 | 0.00 | 34 | 1007.1 |
| 20260503223044 | 48 | 234 | 4.0 | 16.0 | 0.00 | 0.00 | 0.00 | 35 | 1007.0 |
| 20260503221542 | 48 | 232 | 4.0 | 17.0 | 0.00 | 0.00 | 0.00 | 35 | 1006.8 |
| 20260503220041 | 49 | 246 | 1.0 | 12.0 | 0.00 | 0.00 | 0.00 | 35 | 1006.7 |
| 20260503214551 | 49 | 223 | 2.0 | 12.0 | 0.00 | 0.00 | 0.00 | 34 | 1006.6 |
| 20260503213104 | 49 | 207 | 4.0 | 13.0 | 0.00 | 0.00 | 0.00 | 34 | 1006.6 |
| 20260503211600 | 49 | 246 | 5.0 | 11.0 | 0.00 | 0.00 | 0.00 | 34 | 1006.5 |
| 20260503210039 | 49 | 298 | 4.0 | 12.0 | 0.00 | 0.00 | 0.00 | 34 | 1006.4 |
| 20260503210007 | 49 | 217 | 6.0 | 12.0 | 0.00 | 0.00 | 0.00 | 34 | 1006.3 |
| 20260503204557 | 50 | 276 | 5.0 | 10.0 | 0.00 | 0.00 | 0.00 | 34 | 1006.3 |
| 20260503203040 | 49 | 265 | 1.0 | 12.0 | 0.00 | 0.00 | 0.00 | 34 | 1006.1 |
| 20260503201538 | 49 | 281 | 3.0 | 11.0 | 0.00 | 0.00 | 0.00 | 34 | 1006.1 |
| 20260503200036 | 49 | 226 | 2.0 | 12.0 | 0.00 | 0.00 | 0.00 | 34 | 1006.1 |
| 20260503194535 | 48 | 289 | 5.0 | 10.0 | 0.00 | 0.00 | 0.00 | 34 | 1006.2 |
| 20260503193035 | 49 | 237 | 6.0 | 17.0 | 0.00 | 0.00 | 0.00 | 34 | 1006.1 |
| 20260503191550 | 49 | 211 | 5.0 | 10.0 | 0.00 | 0.00 | 0.00 | 34 | 1006.0 |
| 20260503190037 | 49 | 236 | 3.0 | 11.0 | 0.00 | 0.00 | 0.00 | 34 | 1006.0 |
| 20260503184535 | 49 | 306 | 6.0 | 17.0 | 0.00 | 0.00 | 0.00 | 34 | 1006.0 |
| 20260503183041 | 50 | 207 | 5.0 | 14.0 | 0.00 | 0.00 | 0.00 | 34 | 1005.8 |